Time;durP1;ratioP1;P1;durP2;ratioP2;P2;SDS_P1;SDS_P2;PMS_P1;PMS_P2;Temp;Humidity;BMP_temperature;BMP_pressure;BME280_temperature;BME280_humidity;BME280_pressure;Samples;Min_cycle;Max_cycle;Signal;HPM_P1;HPM_P2
2022/04/26 03:37:47;;;;;;;1.98;1.70;;;;;;;17.61;55.29;98782.09;1814686;79;21053;-66
2022/04/26 03:40:14;;;;;;;1.90;1.55;;;;;;;17.61;55.31;98782.89;1814683;79;21545;-66
2022/04/26 03:42:41;;;;;;;1.92;1.70;;;;;;;17.61;55.32;98786.12;1814400;79;21287;-65
2022/04/26 03:45:08;;;;;;;2.17;1.80;;;;;;;17.61;55.32;98789.61;1814438;79;20994;-65
2022/04/26 03:47:36;;;;;;;1.90;1.50;;;;;;;17.61;55.34;98800.35;1814468;79;21065;-66
2022/04/26 03:50:04;;;;;;;1.70;1.60;;;;;;;17.62;55.33;98802.00;1814472;79;21604;-65
2022/04/26 03:52:32;;;;;;;2.45;2.08;;;;;;;17.62;55.35;98803.34;1813420;79;20975;-67
2022/04/26 03:55:04;;;;;;;2.72;1.70;;;;;;;17.62;55.33;98811.94;1814517;79;21537;-65
2022/04/26 03:57:32;;;;;;;2.15;1.52;;;;;;;17.62;55.33;98813.28;1814421;79;20998;-66
2022/04/26 03:59:59;;;;;;;2.35;1.60;;;;;;;17.62;55.34;98815.96;1814392;79;21076;-66
2022/04/26 04:02:26;;;;;;;2.22;1.57;;;;;;;17.62;55.34;98824.02;1814377;78;21018;-66
2022/04/26 04:04:52;;;;;;;1.85;1.60;;;;;;;17.62;55.36;98824.83;1814408;79;21053;-66
2022/04/26 04:07:19;;;;;;;1.75;1.60;;;;;;;17.62;55.36;98823.48;1814570;79;21249;-65
2022/04/26 04:09:47;;;;;;;3.05;1.75;;;;;;;17.62;55.36;98832.08;1813114;79;21560;-65
2022/04/26 04:12:15;;;;;;;1.82;1.72;;;;;;;17.63;55.35;98836.38;1813598;79;21005;-66
2022/04/26 04:14:43;;;;;;;1.95;1.55;;;;;;;17.63;55.35;98841.21;1814452;79;21030;-66
2022/04/26 04:17:10;;;;;;;1.72;1.57;;;;;;;17.63;55.34;98843.90;1814386;79;21470;-66
2022/04/26 04:19:36;;;;;;;2.35;1.82;;;;;;;17.62;55.34;98839.59;1814597;79;21112;-66
2022/04/26 04:22:04;;;;;;;2.75;1.52;;;;;;;17.63;55.35;98851.95;1814366;78;21033;-66
2022/04/26 04:24:32;;;;;;;1.80;1.70;;;;;;;17.63;55.36;98855.18;1814904;79;21014;-66
2022/04/26 04:26:59;;;;;;;1.92;1.72;;;;;;;17.63;55.36;98853.30;1798375;78;21042;-66
2022/04/26 04:29:27;;;;;;;1.92;1.60;;;;;;;17.63;55.36;98852.48;1782365;79;21053;-65
2022/04/26 04:31:55;;;;;;;1.72;1.62;;;;;;;17.64;55.36;98855.48;1782405;80;21701;-66
2022/04/26 04:34:22;;;;;;;2.08;1.57;;;;;;;17.63;55.35;98859.20;1782255;80;20966;-67
2022/04/26 04:36:51;;;;;;;2.47;1.50;;;;;;;17.64;55.38;98859.52;1782417;79;20998;-66
2022/04/26 04:39:20;;;;;;;2.22;1.72;;;;;;;17.64;55.36;98866.22;1782431;79;21030;-66
2022/04/26 04:41:47;;;;;;;2.90;1.75;;;;;;;17.64;55.38;98863.00;1782329;79;20990;-65
2022/04/26 04:44:13;;;;;;;2.00;1.80;;;;;;;17.64;55.38;98872.94;1783459;79;22010;-65
2022/04/26 04:46:40;;;;;;;1.67;1.55;;;;;;;17.65;55.38;98871.87;1782323;79;21045;-65
2022/04/26 04:49:08;;;;;;;2.00;1.65;;;;;;;17.64;55.40;98871.06;1782415;79;21489;-66
2022/04/26 04:51:36;;;;;;;2.05;1.75;;;;;;;17.64;55.42;98864.88;1782581;80;21018;-66
2022/04/26 04:54:04;;;;;;;1.50;1.40;;;;;;;17.64;55.42;98863.54;1782506;79;21018;-66
2022/04/26 04:56:31;;;;;;;1.98;1.80;;;;;;;17.64;55.45;98867.03;1782631;80;21121;-65
2022/04/26 04:58:59;;;;;;;1.80;1.70;;;;;;;17.65;55.42;98866.50;1782385;80;21057;-65
2022/04/26 05:01:25;;;;;;;2.37;1.60;;;;;;;17.66;55.45;98864.12;1792277;79;21010;-66
2022/04/26 05:03:52;;;;;;;2.02;1.70;;;;;;;17.66;55.44;98877.55;1814501;79;21486;-66
2022/04/26 05:06:20;;;;;;;2.33;1.72;;;;;;;17.66;55.44;98870.83;1814700;79;20967;-66
2022/04/26 05:08:47;;;;;;;2.15;1.87;;;;;;;17.66;55.46;98873.52;1814574;79;21110;-66
2022/04/26 05:11:14;;;;;;;1.77;1.55;;;;;;;17.67;55.46;98872.45;1814631;79;20990;-65
2022/04/26 05:13:41;;;;;;;2.02;1.72;;;;;;;17.67;55.46;98875.13;1814579;79;21193;-66
2022/04/26 05:16:09;;;;;;;1.95;1.80;;;;;;;17.67;55.46;98886.72;1814527;79;21019;-65
2022/04/26 05:18:37;;;;;;;2.12;1.92;;;;;;;17.67;55.46;98886.72;1813395;79;21026;-66
2022/04/26 05:21:15;;;;;;;2.67;2.25;;;;;;;17.68;55.49;98891.55;1814620;78;21041;-66
2022/04/26 05:26:28;;;;;;;2.15;1.95;;;;;;;17.69;55.51;98901.23;1814654;79;21022;-65
2022/04/26 05:28:55;;;;;;;2.20;1.80;;;;;;;17.68;55.52;98899.61;1814535;78;21045;-66
2022/04/26 05:31:21;;;;;;;2.05;1.70;;;;;;;17.68;55.54;98899.61;1814581;78;21002;-67
2022/04/26 05:33:48;;;;;;;2.85;1.77;;;;;;;17.68;55.54;98899.61;1814288;79;21220;-66
2022/04/26 05:36:15;;;;;;;1.87;1.60;;;;;;;17.68;55.57;98897.73;1814594;79;21026;-65
2022/04/26 05:38:43;;;;;;;2.02;1.90;;;;;;;17.69;55.56;98901.23;1814564;79;21014;-66
2022/04/26 05:41:10;;;;;;;1.77;1.55;;;;;;;17.69;55.57;98901.23;1814705;79;20980;-66
2022/04/26 05:43:36;;;;;;;1.70;1.60;;;;;;;17.69;55.59;98902.58;1814678;79;20986;-67
2022/04/26 05:46:04;;;;;;;1.92;1.80;;;;;;;17.71;55.57;98909.06;1814591;79;21859;-65
2022/04/26 05:48:31;;;;;;;2.52;1.72;;;;;;;17.71;55.61;98907.19;1814626;79;21006;-66
2022/04/26 05:50:57;;;;;;;2.62;1.82;;;;;;;17.73;55.59;98916.36;1813289;78;21077;-65
2022/04/26 05:53:24;;;;;;;1.95;1.77;;;;;;;17.72;55.62;98919.58;1814719;79;21520;-66
2022/04/26 05:55:50;;;;;;;2.10;1.90;;;;;;;17.73;55.63;98923.91;1814521;79;21486;-66
2022/04/26 05:58:17;;;;;;;2.10;1.67;;;;;;;17.74;55.63;98926.06;1814564;79;21231;-67
2022/04/26 06:00:45;;;;;;;1.80;1.60;;;;;;;17.74;55.63;98922.84;1814395;78;21494;-66
2022/04/26 06:03:12;;;;;;;2.12;1.92;;;;;;;17.75;55.66;98924.99;1814906;79;21002;-66
2022/04/26 06:05:40;;;;;;;1.95;1.77;;;;;;;17.77;55.64;98929.10;1814502;79;21475;-66
2022/04/26 06:08:10;;;;;;;1.47;1.37;;;;;;;17.77;55.67;98933.13;1813482;79;21053;-66
2022/04/26 06:10:39;;;;;;;2.33;2.05;;;;;;;17.79;55.69;98932.88;1814592;79;21261;-67
2022/04/26 06:13:12;;;;;;;2.62;1.45;;;;;;;17.80;55.75;98928.61;1814402;79;20994;-66
2022/04/26 06:15:37;;;;;;;2.10;1.90;;;;;;;17.80;55.74;98929.95;1814388;78;21002;-65
2022/04/26 06:18:06;;;;;;;3.35;1.50;;;;;;;17.82;55.81;98937.79;1814547;79;21057;-66
2022/04/26 06:20:32;;;;;;;1.90;1.80;;;;;;;17.83;55.89;98941.59;1814645;79;21049;-66
2022/04/26 06:23:02;;;;;;;1.92;1.57;;;;;;;17.82;55.92;98943.97;1814539;79;20990;-66
2022/04/26 06:25:32;;;;;;;1.85;1.60;;;;;;;17.84;55.94;98946.45;1813421;79;21055;-66
2022/04/26 06:27:58;;;;;;;1.85;1.60;;;;;;;17.85;56.08;98946.23;1814671;79;20966;-66
2022/04/26 06:30:25;;;;;;;1.60;1.50;;;;;;;17.87;56.07;98951.38;1814447;79;21002;-65
2022/04/26 06:32:52;;;;;;;1.90;1.60;;;;;;;17.88;56.11;98947.62;1814726;79;21478;-66
2022/04/26 06:35:19;;;;;;;1.90;1.65;;;;;;;17.89;56.19;98947.92;1814676;79;21126;-66
2022/04/26 06:37:45;;;;;;;1.90;1.70;;;;;;;17.90;56.18;98950.08;1814547;79;21506;-66
2022/04/26 06:40:12;;;;;;;1.60;1.50;;;;;;;17.94;56.09;98952.58;1814609;79;20974;-66
2022/04/26 06:42:39;;;;;;;1.92;1.42;;;;;;;17.95;56.06;98945.63;1813374;79;21090;-66
2022/04/26 06:45:08;;;;;;;2.75;1.57;;;;;;;17.98;56.06;98952.40;1814863;79;21525;-66
2022/04/26 06:47:34;;;;;;;2.90;1.60;;;;;;;18.00;56.08;98953.82;1814574;79;21321;-65
2022/04/26 06:50:03;;;;;;;2.45;1.60;;;;;;;18.01;56.09;98949.25;1814493;79;21041;-66
2022/04/26 06:52:32;;;;;;;1.60;1.42;;;;;;;18.04;56.06;98948.77;1814611;78;21002;-67
2022/04/26 06:54:58;;;;;;;2.10;1.80;;;;;;;18.05;56.09;98949.87;1814436;79;21080;-66
2022/04/26 06:57:24;;;;;;;2.65;1.87;;;;;;;18.08;56.10;98954.79;1814545;79;21010;-65
2022/04/26 06:59:52;;;;;;;1.65;1.55;;;;;;;18.10;56.06;98947.84;1801597;79;20990;-65
2022/04/26 07:02:20;;;;;;;1.65;1.55;;;;;;;18.14;56.01;98954.88;1814634;79;20979;-66
2022/04/26 07:04:47;;;;;;;2.65;1.92;;;;;;;18.15;56.02;98953.30;1814468;79;21014;-65
2022/04/26 07:07:15;;;;;;;1.82;1.57;;;;;;;18.17;55.95;98962.48;1814575;79;21010;-65
2022/04/26 07:09:41;;;;;;;1.55;1.45;;;;;;;18.18;55.91;98958.22;1814439;79;21018;-67
2022/04/26 07:12:09;;;;;;;1.50;1.40;;;;;;;18.20;55.87;98954.77;1813665;78;21060;-66
2022/04/26 07:14:37;;;;;;;1.40;1.30;;;;;;;18.22;55.88;98960.72;1814504;78;21498;-66
2022/04/26 07:17:05;;;;;;;1.67;1.52;;;;;;;18.25;55.86;98961.61;1797785;78;21530;-66
2022/04/26 07:19:35;;;;;;;1.70;1.60;;;;;;;18.25;55.90;98957.57;1782425;79;21026;-66
2022/04/26 07:22:03;;;;;;;1.77;1.67;;;;;;;18.30;55.86;98961.41;1782546;79;21002;-65
2022/04/26 07:24:33;;;;;;;1.95;1.50;;;;;;;18.31;55.85;98965.22;1782490;79;21454;-66
2022/04/26 07:27:03;;;;;;;1.52;1.42;;;;;;;18.33;55.84;98964.45;1782546;78;20982;-66
2022/04/26 07:29:31;;;;;;;1.80;1.52;;;;;;;18.35;55.79;98965.53;1782514;79;21049;-66
2022/04/26 07:31:59;;;;;;;1.52;1.42;;;;;;;18.38;55.79;98977.17;1782373;79;21053;-66
2022/04/26 07:34:27;;;;;;;1.80;1.55;;;;;;;18.40;55.75;98972.37;1783837;79;21004;-66
2022/04/26 07:36:59;;;;;;;1.45;1.35;;;;;;;18.42;55.75;98975.63;1782337;80;21192;-67
2022/04/26 07:39:29;;;;;;;1.52;1.42;;;;;;;18.46;55.73;98972.75;1782470;79;21485;-66
2022/04/26 07:41:56;;;;;;;1.55;1.45;;;;;;;18.49;55.72;98983.05;1782414;80;21062;-65
2022/04/26 07:44:23;;;;;;;1.42;1.32;;;;;;;18.51;55.71;98992.23;1782382;79;21513;-66
2022/04/26 07:46:50;;;;;;;3.37;1.40;;;;;;;18.53;55.71;98983.39;1782330;79;20990;-66
2022/04/26 07:49:19;;;;;;;2.10;1.57;;;;;;;18.56;55.74;98978.86;1782411;79;21133;-66
2022/04/26 07:51:48;;;;;;;1.40;1.30;;;;;;;18.58;55.75;98980.78;1783369;79;21002;-66
2022/04/26 07:54:16;;;;;;;1.75;1.50;;;;;;;18.60;55.74;98983.55;1782420;79;21038;-66
2022/04/26 07:56:44;;;;;;;1.50;1.40;;;;;;;18.63;55.79;98981.70;1782290;80;21494;-66
2022/04/26 07:59:14;;;;;;;1.80;1.40;;;;;;;18.65;55.83;98987.66;1788386;79;20986;-66
2022/04/26 08:01:41;;;;;;;1.85;1.65;;;;;;;18.67;55.85;98999.53;1814392;79;21239;-66
2022/04/26 08:04:09;;;;;;;1.92;1.72;;;;;;;18.69;55.86;98997.95;1814547;79;21045;-66
2022/04/26 08:06:37;;;;;;;1.70;1.60;;;;;;;18.70;55.90;99000.92;1814577;79;21583;-65
2022/04/26 08:09:04;;;;;;;1.67;1.50;;;;;;;18.71;55.87;99007.41;1813423;79;21021;-66
2022/04/26 08:11:31;;;;;;;1.92;1.50;;;;;;;18.73;55.88;98997.22;1814403;79;21573;-67
2022/04/26 08:14:00;;;;;;;2.00;1.80;;;;;;;18.75;55.93;99001.03;1814378;78;21099;-66
2022/04/26 08:16:27;;;;;;;1.85;1.60;;;;;;;18.76;55.92;98997.30;1814444;79;21020;-65
2022/04/26 08:18:54;;;;;;;1.65;1.50;;;;;;;18.80;55.91;98999.83;1814488;78;21041;-66
2022/04/26 08:21:22;;;;;;;1.60;1.50;;;;;;;18.80;55.87;99011.93;1814457;79;21042;-66
2022/04/26 08:29:23;;;;;;;1.92;1.72;;;;;;;18.85;55.88;99018.73;1745126;82;21013;-65
2022/04/26 08:31:52;;;;;;;1.95;1.67;;;;;;;18.85;55.90;99015.54;1734218;82;21010;-65
2022/04/26 08:34:20;;;;;;;1.60;1.50;;;;;;;18.87;55.91;99019.31;1734268;82;21046;-66
2022/04/26 08:36:47;;;;;;;1.37;1.27;;;;;;;18.88;55.94;99027.69;1734365;82;21537;-66
2022/04/26 08:39:15;;;;;;;1.50;1.40;;;;;;;18.89;55.88;99026.64;1734317;81;21002;-66
2022/04/26 08:41:41;;;;;;;1.50;1.35;;;;;;;18.90;55.89;99030.14;1745011;81;21038;-66
2022/04/26 08:51:50;;;;;;;2.25;2.05;;;;;;;18.97;55.86;99032.17;1738565;80;21013;-66
2022/04/26 08:54:17;;;;;;;1.77;1.35;;;;;;;18.97;55.84;99034.33;1757867;80;21529;-65
2022/04/26 08:56:45;;;;;;;1.45;1.35;;;;;;;18.99;55.83;99044.33;1788342;80;20958;-65
2022/04/26 08:59:12;;;;;;;1.50;1.40;;;;;;;19.00;55.85;99046.48;1795739;78;21495;-65
2022/04/26 09:01:40;;;;;;;1.25;1.15;;;;;;;19.00;55.80;99047.29;1757176;81;20944;-65
2022/04/26 09:04:08;;;;;;;1.50;1.40;;;;;;;18.99;55.79;99048.36;1757181;81;20971;-63
2022/04/26 09:06:39;;;;;;;2.00;1.77;;;;;;;19.01;55.68;99046.24;1702414;81;21055;-65
2022/04/26 09:09:11;;;;;;;1.85;1.75;;;;;;;19.03;54.05;99062.97;1757388;81;20979;-66
2022/04/26 09:11:38;;;;;;;4.03;1.60;;;;;;;19.04;54.37;99060.58;1757164;81;20999;-65
2022/04/26 09:14:08;;;;;;;1.90;1.80;;;;;;;19.07;54.81;99062.50;1757281;81;21515;-64
2022/04/26 09:16:36;;;;;;;1.70;1.60;;;;;;;19.09;54.52;99061.20;1770652;78;21304;-65
2022/04/26 09:19:06;;;;;;;1.98;1.80;;;;;;;19.09;54.47;99063.89;1772823;81;20967;-67
2022/04/26 09:21:35;;;;;;;2.17;1.55;;;;;;;19.11;54.40;99060.96;1772923;80;20994;-66
2022/04/26 09:24:05;;;;;;;4.12;2.02;;;;;;;19.13;54.48;99061.53;1772849;81;21038;-65
2022/04/26 09:26:35;;;;;;;1.92;1.60;;;;;;;19.14;54.55;99060.46;1773385;81;21030;-66
2022/04/26 09:29:05;;;;;;;1.90;1.62;;;;;;;19.13;54.56;99069.08;1772949;80;21022;-65
2022/04/26 09:31:37;;;;;;;1.72;1.50;;;;;;;19.13;54.55;99075.80;1772930;80;21487;-65
2022/04/26 09:34:12;;;;;;;1.85;1.57;;;;;;;19.13;54.67;99079.84;1774589;78;21010;-65
2022/04/26 09:36:45;;;;;;;1.57;1.47;;;;;;;19.13;54.68;99079.03;1770309;80;21012;-65
2022/04/26 09:39:20;;;;;;;2.85;1.70;;;;;;;19.13;54.71;99073.65;1773294;80;21101;-65
2022/04/26 09:41:51;;;;;;;2.00;1.80;;;;;;;19.13;54.79;99082.53;1770324;80;22058;-65
2022/04/26 09:44:17;;;;;;;1.47;1.37;;;;;;;19.13;54.79;99082.53;1773061;80;21030;-65
2022/04/26 09:46:49;;;;;;;1.60;1.50;;;;;;;19.13;54.88;99078.50;1765304;81;21074;-65
2022/04/26 09:49:24;;;;;;;1.57;1.47;;;;;;;19.14;54.88;99079.30;1766895;79;21018;-65
2022/04/26 09:52:01;;;;;;;1.67;1.57;;;;;;;19.15;54.94;99075.58;1764932;80;21086;-66
2022/04/26 09:54:32;;;;;;;2.00;1.60;;;;;;;19.15;55.03;99075.03;1765163;81;21011;-66
2022/04/26 09:57:01;;;;;;;3.70;1.67;;;;;;;19.17;55.06;99078.30;1764635;81;21230;-66
2022/04/26 09:59:30;;;;;;;1.67;1.57;;;;;;;19.21;55.19;99079.98;1777106;80;21123;-66
2022/04/26 10:01:58;;;;;;;1.82;1.37;;;;;;;19.22;55.30;99082.98;1750513;80;21057;-66
2022/04/26 10:04:27;;;;;;;2.00;1.60;;;;;;;19.25;55.37;99076.56;1782536;80;21041;-66
2022/04/26 10:07:05;;;;;;;2.02;1.92;;;;;;;19.29;55.43;99078.78;1774848;79;21189;-66
2022/04/26 10:09:33;;;;;;;1.80;1.57;;;;;;;19.33;55.46;99078.59;1764443;81;21503;-66
2022/04/26 10:12:02;;;;;;;1.62;1.52;;;;;;;19.35;55.54;99084.55;1764363;81;21554;-66
2022/04/26 10:14:31;;;;;;;2.67;1.80;;;;;;;19.37;55.57;99084.61;1748493;80;21011;-65
2022/04/26 10:16:57;;;;;;;1.67;1.57;;;;;;;19.41;55.59;99083.06;1743589;82;21033;-66
2022/04/26 10:19:43;;;;;;;1.40;1.30;;;;;;;19.44;55.42;99082.56;1743655;82;21861;-65
2022/04/26 10:22:14;;;;;;;1.60;1.50;;;;;;;19.50;55.41;99078.63;1743200;82;21073;-65
2022/04/26 10:24:40;;;;;;;1.65;1.52;;;;;;;19.56;55.51;99084.38;1761454;79;21003;-65
2022/04/26 10:27:25;;;;;;;1.72;1.60;;;;;;;19.61;55.43;99081.25;1764419;81;21054;-66
2022/04/26 10:29:52;;;;;;;1.57;1.47;;;;;;;19.69;55.36;99080.03;1764370;81;21054;-66
2022/04/26 10:32:40;;;;;;;1.95;1.75;;;;;;;19.78;55.36;99083.16;1764506;81;20976;-65
2022/04/26 10:35:28;;;;;;;1.60;1.50;;;;;;;19.83;55.45;99088.64;1764363;81;21089;-65
2022/04/26 10:38:14;;;;;;;1.50;1.40;;;;;;;19.90;55.99;99092.00;1764348;81;21014;-66
2022/04/26 10:41:06;;;;;;;1.60;1.50;;;;;;;19.94;56.02;99094.48;1772329;79;21490;-65
2022/04/26 10:43:32;;;;;;;3.12;1.67;;;;;;;19.97;56.14;99091.82;1782585;80;20999;-65
2022/04/26 10:46:13;;;;;;;1.50;1.40;;;;;;;19.99;56.07;99102.66;1778116;80;22001;-66
2022/04/26 10:48:42;;;;;;;1.50;1.40;;;;;;;20.01;56.17;99106.44;1752518;80;21078;-64
2022/04/26 10:51:34;;;;;;;2.10;1.87;;;;;;;20.01;56.14;99107.79;1774259;80;21513;-65
2022/04/26 10:54:03;;;;;;;2.98;1.85;;;;;;;20.02;56.12;99106.74;1774190;80;21511;-66
2022/04/26 10:56:31;;;;;;;2.72;1.85;;;;;;;20.02;56.19;99114.83;1774190;80;21136;-66
2022/04/26 10:58:58;;;;;;;1.70;1.60;;;;;;;20.02;56.18;99121.03;1773069;80;21190;-66
2022/04/26 11:01:27;;;;;;;1.80;1.70;;;;;;;20.02;56.27;99121.57;1774312;80;21049;-65
2022/04/26 11:03:55;;;;;;;1.30;1.20;;;;;;;20.02;56.28;99129.12;1774201;80;21035;-64
2022/04/26 11:06:39;;;;;;;1.65;1.37;;;;;;;20.03;56.31;99124.56;1774256;80;21073;-65
2022/04/26 11:09:09;;;;;;;1.50;1.40;;;;;;;20.04;56.29;99122.95;1774216;80;21062;-65
2022/04/26 11:11:52;;;;;;;2.17;1.40;;;;;;;20.07;56.34;99126.22;1774266;80;21815;-64
2022/04/26 11:14:22;;;;;;;2.17;1.80;;;;;;;20.09;56.25;99129.48;1775491;79;20998;-66
2022/04/26 11:17:06;;;;;;;1.70;1.60;;;;;;;20.09;56.22;99129.48;1774104;80;21026;-65
2022/04/26 11:19:40;;;;;;;1.52;1.42;;;;;;;20.10;56.23;99131.94;1774223;80;21011;-66
2022/04/26 11:22:14;;;;;;;1.42;1.32;;;;;;;20.08;56.31;99132.72;1774832;80;21069;-65
2022/04/26 11:30:29;;;;;;;1.55;1.45;;;;;;;20.10;56.49;99150.00;1774273;80;21050;-66
2022/04/26 11:32:57;;;;;;;1.85;1.57;;;;;;;20.10;56.49;99154.05;1762615;79;21066;-66
2022/04/26 11:35:25;;;;;;;1.80;1.70;;;;;;;20.09;56.45;99148.35;1759046;81;21006;-65
2022/04/26 11:37:55;;;;;;;1.40;1.30;;;;;;;20.10;56.47;99146.77;1758908;81;21031;-65
2022/04/26 11:40:36;;;;;;;1.60;1.50;;;;;;;20.12;56.25;99144.64;1759129;81;21547;-66
2022/04/26 11:43:13;;;;;;;1.60;1.50;;;;;;;20.15;56.09;99147.40;1759254;81;21082;-65
2022/04/26 11:45:44;;;;;;;1.70;1.60;;;;;;;20.18;55.95;99146.89;1760249;81;21010;-65
2022/04/26 11:48:15;;;;;;;1.40;1.30;;;;;;;20.20;56.03;99140.20;1766110;79;20998;-65
2022/04/26 11:50:43;;;;;;;1.57;1.47;;;;;;;20.23;55.94;99137.55;1763847;81;21756;-66
2022/04/26 11:53:12;;;;;;;1.67;1.40;;;;;;;20.24;56.04;99132.41;1764289;81;21116;-65
2022/04/26 11:55:44;;;;;;;1.57;1.47;;;;;;;20.25;56.08;99129.20;1764278;81;21483;-65
2022/04/26 11:58:18;;;;;;;1.80;1.70;;;;;;;20.28;56.13;99128.19;1764913;80;21053;-64
2022/04/26 12:01:08;;;;;;;2.58;1.50;;;;;;;20.37;55.82;99130.73;1782458;80;21513;-65
2022/04/26 12:03:48;;;;;;;2.25;1.47;;;;;;;20.43;55.40;99131.63;1752350;80;21213;-65
2022/04/26 12:06:31;;;;;;;1.67;1.40;;;;;;;20.53;55.10;99132.30;1782868;79;21069;-65
2022/04/26 12:09:04;;;;;;;1.45;1.35;;;;;;;20.62;54.80;99134.90;1782334;80;21101;-65
2022/04/26 12:11:38;;;;;;;;;;;;;;;20.73;54.67;99133.17;1785089;80;21026;-65
2022/04/26 12:14:14;;;;;;;1.35;1.30;;;;;;;20.83;54.58;99138.69;1782975;80;20447;-66
2022/04/26 12:16:47;;;;;;;1.60;1.47;;;;;;;20.92;54.60;99139.90;1782359;80;21255;-66
2022/04/26 12:19:14;;;;;;;1.40;1.30;;;;;;;20.98;54.88;99148.34;1781780;80;21057;-66
2022/04/26 12:21:56;;;;;;;1.77;1.42;;;;;;;21.03;55.03;99150.81;1782447;80;21034;-66
2022/04/26 12:24:27;;;;;;;1.40;1.30;;;;;;;21.06;55.04;99151.67;1751324;82;21529;-65
2022/04/26 12:27:04;;;;;;;1.42;1.32;;;;;;;21.09;55.03;99154.66;1751588;82;21036;-65
2022/04/26 12:29:44;;;;;;;1.60;1.30;;;;;;;21.16;54.95;99161.24;1751708;82;21145;-65
2022/04/26 12:32:20;;;;;;;1.57;1.35;;;;;;;21.28;54.82;99161.11;1751370;82;21054;-65
2022/04/26 12:34:58;;;;;;;1.62;1.52;;;;;;;21.44;54.55;99151.31;1751474;82;21522;-65
2022/04/26 12:37:29;;;;;;;1.37;1.27;;;;;;;21.60;54.41;99154.47;1751491;82;21565;-64
2022/04/26 12:40:00;;;;;;;1.67;1.57;;;;;;;21.69;54.40;99151.59;1759976;79;21090;-66
2022/04/26 12:42:38;;;;;;;1.65;1.55;;;;;;;21.76;54.53;99152.19;1763914;81;21136;-66
2022/04/26 12:45:21;;;;;;;1.30;1.20;;;;;;;21.82;54.69;99143.59;1762586;80;21194;-65
2022/04/26 12:51:17;;;;;;;1.55;1.30;;;;;;;21.84;54.87;99152.80;1764350;81;21058;-65
2022/04/26 12:53:45;;;;;;;1.32;1.22;;;;;;;21.81;54.88;99151.44;1764350;81;21082;-65
2022/04/26 12:56:12;;;;;;;1.60;1.50;;;;;;;21.78;54.98;99154.09;1768466;79;21091;-66
2022/04/26 12:58:41;;;;;;;1.50;1.40;;;;;;;21.78;55.04;99160.05;1782314;80;21061;-66
2022/04/26 13:01:09;;;;;;;1.47;1.37;;;;;;;21.74;55.05;99157.03;1782438;80;21042;-66
2022/04/26 13:03:37;;;;;;;1.50;1.40;;;;;;;21.72;54.96;99155.13;1782373;80;20979;-65
2022/04/26 13:06:16;;;;;;;1.40;1.30;;;;;;;21.71;54.97;99159.42;1782404;80;21066;-65
2022/04/26 13:08:48;;;;;;;1.42;1.32;;;;;;;21.69;54.90;99154.30;1782288;80;20999;-66
2022/04/26 13:11:17;;;;;;;1.40;1.30;;;;;;;21.67;54.91;99159.66;1782775;80;21010;-65
2022/04/26 13:13:49;;;;;;;1.40;1.30;;;;;;;21.64;55.00;99155.59;1780371;79;21085;-65
2022/04/26 13:16:19;;;;;;;1.60;1.45;;;;;;;21.63;54.95;99164.75;1782743;80;21486;-65
2022/04/26 13:18:47;;;;;;;1.35;1.25;;;;;;;21.61;54.96;99165.55;1782417;80;21517;-65
2022/04/26 13:21:14;;;;;;;1.12;1.12;;;;;;;21.59;54.94;99160.42;1782508;80;21222;-65
2022/04/26 13:23:43;;;;;;;1.40;1.30;;;;;;;21.56;54.95;99151.46;1782277;80;21046;-65
2022/04/26 13:26:09;;;;;;;1.40;1.30;;;;;;;21.55;54.93;99156.56;1782318;80;21033;-66
2022/04/26 13:28:36;;;;;;;1.57;1.47;;;;;;;21.53;54.98;99157.36;1782420;80;20994;-65
2022/04/26 13:31:03;;;;;;;1.30;1.20;;;;;;;21.53;55.04;99160.06;1774510;79;21522;-66
2022/04/26 13:33:30;;;;;;;1.45;1.35;;;;;;;21.53;55.09;99155.20;1764455;81;21134;-66
2022/04/26 13:35:57;;;;;;;1.52;1.42;;;;;;;21.53;55.10;99157.91;1764409;81;21054;-64
2022/04/26 13:38:24;;;;;;;1.30;1.20;;;;;;;21.54;55.17;99165.77;1764639;81;21531;-66
2022/04/26 13:40:53;;;;;;;1.90;1.72;;;;;;;21.53;55.14;99172.22;1764483;81;20998;-64
2022/04/26 13:43:23;;;;;;;1.40;1.30;;;;;;;21.52;55.14;99172.50;1764465;81;20995;-65
2022/04/26 13:45:50;;;;;;;1.15;1.15;;;;;;;21.51;55.03;99179.77;1764373;80;21100;-65
2022/04/26 13:48:17;;;;;;;1.40;1.30;;;;;;;21.49;54.98;99186.50;1796804;79;21022;-64
2022/04/26 13:50:46;;;;;;;1.55;1.40;;;;;;;21.48;54.88;99179.45;1817783;78;21061;-65
2022/04/26 13:53:12;;;;;;;1.42;1.32;;;;;;;21.46;54.90;99182.44;1817814;79;20950;-65
2022/04/26 13:55:39;;;;;;;1.45;1.35;;;;;;;21.44;54.91;99192.69;1817873;79;21045;-65
2022/04/26 13:58:09;;;;;;;1.77;1.67;;;;;;;21.44;54.96;99197.25;1808657;79;21054;-65
2022/04/26 14:00:36;;;;;;;1.42;1.32;;;;;;;21.41;54.84;99203.95;1751606;82;21046;-65
2022/04/26 14:03:03;;;;;;;1.30;1.20;;;;;;;21.38;54.86;99201.74;1751439;82;21065;-65
2022/04/26 14:05:31;;;;;;;1.50;1.40;;;;;;;21.35;54.88;99201.72;1762947;79;21121;-65
2022/04/26 14:07:57;;;;;;;1.60;1.50;;;;;;;21.33;54.95;99209.80;1764457;81;21035;-65
2022/04/26 14:10:25;;;;;;;1.27;1.17;;;;;;;21.31;54.95;99206.00;1764407;81;21225;-65
2022/04/26 14:12:55;;;;;;;1.40;1.30;;;;;;;21.28;54.98;99205.14;1764217;81;21495;-65
2022/04/26 14:23:42;;;;;;;1.45;1.35;;;;;;;21.17;55.08;99219.58;1764391;81;21581;-65
2022/04/26 14:26:10;;;;;;;1.50;1.40;;;;;;;21.13;55.17;99219.28;1764355;81;21030;-65
2022/04/26 14:28:37;;;;;;;1.42;1.35;;;;;;;21.12;55.15;99224.93;1764516;81;21070;-65
2022/04/26 14:31:05;;;;;;;1.30;1.20;;;;;;;21.07;55.21;99225.66;1764409;81;21086;-64
2022/04/26 14:33:34;;;;;;;1.52;1.42;;;;;;;21.06;55.18;99234.84;1764474;81;20998;-66
2022/04/26 14:36:01;;;;;;;1.60;1.50;;;;;;;21.03;55.10;99236.69;1764454;81;21137;-65
2022/04/26 14:38:28;;;;;;;1.22;1.15;;;;;;;21.00;55.05;99235.84;1770790;79;21246;-65
2022/04/26 14:40:55;;;;;;;1.22;1.20;;;;;;;20.97;55.01;99231.73;1782553;80;21014;-66
2022/04/26 14:43:21;;;;;;;1.12;1.12;;;;;;;20.95;54.88;99241.98;1782735;80;21521;-66
2022/04/26 14:45:50;;;;;;;1.42;1.32;;;;;;;20.91;54.74;99236.80;1782337;79;21057;-65
2022/04/26 14:48:18;;;;;;;1.40;1.30;;;;;;;20.91;54.66;99252.18;1782451;80;21009;-65
2022/04/26 14:50:45;;;;;;;1.40;1.30;;;;;;;20.88;54.68;99254.02;1782426;80;20998;-66
2022/04/26 14:53:11;;;;;;;1.20;1.15;;;;;;;20.85;54.70;99253.17;1782431;80;21084;-65
2022/04/26 14:55:39;;;;;;;1.32;1.22;;;;;;;20.81;54.67;99251.50;1777553;79;21019;-65
2022/04/26 14:58:09;;;;;;;1.20;1.10;;;;;;;20.79;54.60;99261.73;1767099;80;21475;-65
2022/04/26 15:00:35;;;;;;;1.40;1.30;;;;;;;20.76;54.52;99264.37;1782283;80;21047;-65
2022/04/26 15:03:04;;;;;;;1.70;1.60;;;;;;;20.73;54.50;99266.77;1782393;80;21009;-65
2022/04/26 15:05:31;;;;;;;1.20;1.10;;;;;;;20.70;54.43;99269.41;1782432;80;21045;-65
2022/04/26 15:10:45;;;;;;;1.50;1.40;;;;;;;20.65;54.47;99273.39;1782524;80;21026;-65
2022/04/26 15:18:45;;;;;;;1.30;1.20;;;;;;;20.55;54.47;99287.51;1764441;81;21077;-65
2022/04/26 15:21:11;;;;;;;1.40;1.30;;;;;;;20.53;54.48;99294.19;1764316;81;21094;-65
2022/04/26 15:23:39;;;;;;;1.50;1.40;;;;;;;20.49;54.50;99300.60;1764391;81;21074;-65
2022/04/26 15:26:06;;;;;;;1.47;1.37;;;;;;;20.47;54.53;99305.97;1764398;81;21148;-65
2022/04/26 15:28:37;;;;;;;1.35;1.25;;;;;;;20.43;54.67;99308.33;1764418;81;21511;-65
2022/04/26 15:31:05;;;;;;;1.72;1.37;;;;;;;20.40;54.70;99310.19;1766334;79;21002;-65
2022/04/26 15:33:31;;;;;;;1.40;1.30;;;;;;;20.38;54.68;99319.05;1764389;81;21529;-65
2022/04/26 15:35:59;;;;;;;1.45;1.32;;;;;;;20.33;54.73;99311.66;1764391;81;21101;-67
2022/04/26 15:38:29;;;;;;;1.40;1.30;;;;;;;20.31;54.81;99313.79;1764645;81;21147;-66
2022/04/26 15:41:01;;;;;;;1.60;1.50;;;;;;;20.30;54.86;99319.42;1764504;81;21498;-66
2022/04/26 15:43:24;;;;;;;1.47;1.37;;;;;;;20.27;54.89;99322.08;1763651;81;21090;-64
2022/04/26 15:45:50;;;;;;;1.47;1.37;;;;;;;20.25;54.86;99330.13;1764390;79;21546;-65
2022/04/26 15:48:17;;;;;;;1.37;1.27;;;;;;;20.20;54.87;99324.94;1817641;78;21336;-65
2022/04/26 15:50:43;;;;;;;1.60;1.50;;;;;;;20.19;55.01;99333.27;1817656;79;21141;-65
2022/04/26 15:53:09;;;;;;;1.47;1.37;;;;;;;20.16;55.00;99334.55;1817762;79;21057;-66
2022/04/26 15:55:36;;;;;;;1.60;1.50;;;;;;;20.13;55.06;99345.83;1818173;79;21463;-66
2022/04/26 15:58:02;;;;;;;1.60;1.50;;;;;;;20.12;55.05;99348.77;1810629;79;21057;-66
2022/04/26 16:00:29;;;;;;;1.55;1.45;;;;;;;20.07;54.96;99349.49;1751499;81;21014;-65
2022/04/26 16:02:57;;;;;;;1.57;1.47;;;;;;;20.04;54.95;99347.27;1753556;79;21557;-65